KCVS/CVS METAR and TAF weather

Enter ICAO airport designator
Station Type Date Time Source
KCVS METAR 2020/04/09 19:58 UTC NOAA

KCVS 091958Z AUTO 19009KT 10SM FEW100 23/02 A3002 RMK AO2 SLP121 T02300019 $


Station Type Date Time Source
KCVS Decoded METAR 2020/04/09 19:58 UTC NOAA

Cannon Air Force Base / Clovis, NM, United States (KCVS) 34-23N 103-19W
Apr 09, 2020 - 03:58 PM EDT / 2020.04.09 1958 UTC
Wind: from the S (190 degrees) at 10 MPH (9 KT):0
Visibility: 10 mile(s):0
Sky conditions: mostly clear
Temperature: 73.4 F (23.0 C)
Dew Point: 35.4 F (1.9 C)
Relative Humidity: 24%
Pressure (altimeter): 30.02 in. Hg (1016 hPa)
ob: KCVS 091958Z AUTO 19009KT 10SM FEW100 23/02 A3002 RMK AO2 SLP121 T02300019
cycle: 20

Station Type Date Time Source
KCVS TAF 2020/04/09 18:17 UTC NOAA

TAF KCVS 091800Z 0918/1024 20012G18KT 9999 BKN100 QNH2998INS
BECMG 0921/0922 19010KT 9999 BKN080 OVC100 QNH2994INS
BECMG 1011/1012 14012G20KT 9999 OVC030 QNH3005INS
BECMG 1017/1018 13010KT 9000 SHRA OVC020 QNH2988INS TX21/0921Z TN07/1011Z

Example: see airport list